ΕΜΥ, Εθνική Μετεωρολογική Υπηρεσία - Δελτία Καιρού, Προγνώσεις

ΑΕΡΟΝΑΥΤΙΛΙΑ

GREEK AIRPORTS CODES

LGTS 271120Z 31006KT 9999 SCT025 31/19 Q1015 NOSIG=

EUROPEAN AIRPORTS CODES

EHAM 271125Z 14004KT 9999 FEW040 20/14 Q1015 TEMPO 6000 SHRASCT025CB=